createdAt,value
2023-11-19T00:02:06.423Z,17.9
2023-11-19T00:07:06.374Z,17.4
2023-11-19T00:12:06.362Z,17.8
2023-11-19T00:17:06.361Z,17.8
2023-11-19T00:22:06.334Z,17.8
2023-11-19T00:27:06.335Z,17.8
2023-11-19T00:32:06.436Z,17.8
2023-11-19T00:37:06.434Z,17.8
2023-11-19T00:42:06.355Z,18
2023-11-19T00:47:06.435Z,19.3
2023-11-19T00:52:06.441Z,19.3
2023-11-19T00:57:06.425Z,19.3
2023-11-19T01:02:06.367Z,21
2023-11-19T01:07:06.390Z,21.5
2023-11-19T01:12:06.349Z,21
2023-11-19T01:17:06.480Z,19.3
2023-11-19T01:22:06.392Z,20.7
2023-11-19T01:27:06.388Z,20.3
2023-11-19T01:32:06.379Z,20.7
2023-11-19T01:37:06.382Z,20.4
2023-11-19T01:42:06.333Z,20.4
2023-11-19T01:47:06.390Z,20.7
2023-11-19T01:52:06.382Z,21.6
2023-11-19T01:57:06.410Z,21.9
2023-11-19T02:02:06.514Z,22.4
2023-11-19T02:07:06.410Z,23.4
2023-11-19T02:12:06.361Z,23.4
2023-11-19T02:17:06.450Z,23.8
2023-11-19T02:22:06.421Z,24
2023-11-19T02:27:06.368Z,24.4
2023-11-19T02:32:06.423Z,24.5
2023-11-19T02:37:06.403Z,25.4
2023-11-19T02:42:06.441Z,25.4
2023-11-19T02:47:06.376Z,25.8
2023-11-19T02:52:06.433Z,26.2
2023-11-19T02:57:06.398Z,28
2023-11-19T03:02:06.442Z,30
2023-11-19T03:07:06.395Z,30.2
2023-11-19T03:12:06.408Z,30.2
2023-11-19T03:17:06.445Z,30.2
2023-11-19T03:22:06.417Z,30.8
2023-11-19T03:27:06.422Z,30.2
2023-11-19T03:32:06.402Z,30.8
2023-11-19T03:37:06.431Z,30.8
2023-11-19T03:42:06.400Z,31.1
2023-11-19T03:47:06.431Z,32.5
2023-11-19T03:52:06.355Z,32.5
2023-11-19T03:57:06.444Z,32.3
2023-11-19T04:02:06.457Z,32.5
2023-11-19T04:07:06.427Z,32.7
2023-11-19T04:12:06.414Z,33.1
2023-11-19T04:17:06.458Z,35.4
2023-11-19T04:22:06.383Z,35.6
2023-11-19T04:27:06.430Z,39.2
2023-11-19T04:32:06.493Z,39.6
2023-11-19T04:42:06.449Z,43
2023-11-19T04:47:06.428Z,44
2023-11-19T04:52:06.451Z,44.6
2023-11-19T04:57:06.428Z,44.6
2023-11-19T05:02:06.414Z,45.5
2023-11-19T05:07:06.438Z,45.6
2023-11-19T05:12:06.434Z,46.4
2023-11-19T05:17:06.468Z,45.6
2023-11-19T05:22:06.399Z,45.7
2023-11-19T05:27:06.420Z,45.7
2023-11-19T05:32:06.454Z,46
2023-11-19T05:37:06.448Z,45.7
2023-11-19T05:42:06.430Z,43
2023-11-19T05:47:06.468Z,42.9
2023-11-19T05:52:06.404Z,43
2023-11-19T05:57:06.412Z,43
2023-11-19T06:02:06.399Z,42.9
2023-11-19T06:07:06.423Z,42.4
2023-11-19T06:12:06.449Z,40.2
2023-11-19T06:17:06.473Z,40.2
2023-11-19T06:22:06.455Z,37.3
2023-11-19T06:27:06.427Z,37.3
2023-11-19T06:37:06.481Z,37.2
2023-11-19T06:42:06.405Z,35.4
2023-11-19T06:47:06.419Z,34.5
2023-11-19T06:52:06.498Z,34.5
2023-11-19T06:57:06.455Z,29.6
2023-11-19T07:02:06.511Z,27.7
2023-11-19T07:07:06.418Z,27.6
2023-11-19T07:12:06.410Z,25.7
2023-11-19T07:17:06.415Z,22.1
2023-11-19T07:22:06.450Z,21.8
2023-11-19T07:27:06.443Z,20.1
2023-11-19T07:32:06.508Z,18.4
2023-11-19T07:37:06.446Z,16.4
2023-11-19T07:42:06.442Z,14.2
2023-11-19T07:47:06.488Z,13.3
2023-11-19T07:52:21.478Z,12.5
2023-11-19T07:57:06.536Z,11.2
2023-11-19T08:02:06.471Z,11.2
2023-11-19T08:07:06.451Z,11.2
2023-11-19T08:12:06.389Z,11.2
2023-11-19T08:17:06.505Z,11.2
2023-11-19T08:22:06.428Z,6.3
2023-11-19T08:27:06.442Z,6.9
2023-11-19T08:32:06.449Z,6.3
2023-11-19T08:37:06.452Z,6.9
2023-11-19T08:42:06.421Z,7.5
2023-11-19T08:47:06.484Z,6.95
2023-11-19T08:52:06.400Z,7.5
2023-11-19T08:57:06.412Z,7.5
2023-11-19T09:02:06.469Z,7.5
2023-11-19T09:07:06.464Z,7.5
2023-11-19T09:12:06.444Z,7.3
2023-11-19T09:17:06.453Z,7.3
2023-11-19T09:22:06.439Z,7.3
2023-11-19T09:27:06.421Z,7.3
2023-11-19T09:32:07.411Z,9.6
2023-11-19T09:37:21.775Z,23.8
2023-11-19T09:42:06.457Z,23.8
2023-11-19T09:47:06.464Z,23.8
2023-11-19T09:52:06.432Z,7.4
2023-11-19T09:57:06.441Z,7.4
2023-11-19T10:02:08.552Z,5
2023-11-19T10:07:06.434Z,4.1
2023-11-19T10:12:06.446Z,4.1
2023-11-19T10:17:06.450Z,4.1
2023-11-19T10:22:06.488Z,4.2
2023-11-19T10:27:06.483Z,4.2
2023-11-19T10:42:06.404Z,4.2
2023-11-19T10:47:06.422Z,4.2
2023-11-19T10:52:06.457Z,4.2
2023-11-19T10:57:06.470Z,4.2
2023-11-19T11:02:06.459Z,4.2
2023-11-19T11:07:06.455Z,3.8
2023-11-19T11:12:06.427Z,4.6
2023-11-19T11:17:06.469Z,4.6
2023-11-19T11:22:06.451Z,5.3
2023-11-19T11:27:06.431Z,5.6
2023-11-19T11:32:06.517Z,5.6
2023-11-19T11:37:06.496Z,5.6
2023-11-19T11:42:06.518Z,5.6
2023-11-19T11:47:06.514Z,5.6
2023-11-19T11:52:06.564Z,5.5
2023-11-19T11:57:12.794Z,5.6
2023-11-19T12:02:06.488Z,5.5
2023-11-19T12:07:06.445Z,5.5
2023-11-19T12:12:06.463Z,4.4
2023-11-19T12:17:06.471Z,4.4
2023-11-19T12:22:06.491Z,4.4
2023-11-19T12:27:06.525Z,5.9
2023-11-19T12:37:06.543Z,5.5
2023-11-19T12:42:06.574Z,5.5
2023-11-19T12:47:06.491Z,5.5
2023-11-19T12:52:06.483Z,5.3
2023-11-19T12:57:06.562Z,5.2
2023-11-19T13:02:06.581Z,3.8
2023-11-19T13:07:07.637Z,3.8
2023-11-19T13:12:06.513Z,3.7
2023-11-19T13:17:06.550Z,3.1
2023-11-19T13:22:06.524Z,3.1
2023-11-19T13:27:06.500Z,3.1
2023-11-19T13:32:06.532Z,3.7
2023-11-19T13:37:06.509Z,3.9
2023-11-19T13:47:06.465Z,4
2023-11-19T13:52:06.507Z,4.1
2023-11-19T13:57:06.476Z,4.1
2023-11-19T14:02:06.494Z,4.1
2023-11-19T14:07:06.510Z,4.2
2023-11-19T14:12:06.524Z,4.2
2023-11-19T14:22:06.541Z,4
2023-11-19T14:27:06.502Z,3
2023-11-19T14:32:06.502Z,2.9
2023-11-19T14:37:06.619Z,2.9
2023-11-19T14:42:06.548Z,2.9
2023-11-19T14:47:06.543Z,2.9
2023-11-19T14:57:06.486Z,4.1
2023-11-19T15:02:06.528Z,4.2
2023-11-19T15:07:06.682Z,4.4
2023-11-19T15:12:06.514Z,5.2
2023-11-19T15:17:06.540Z,5.2
2023-11-19T15:22:06.494Z,4.4
2023-11-19T15:32:06.557Z,4.4
2023-11-19T15:37:06.500Z,4.4
2023-11-19T15:42:06.535Z,4.4
2023-11-19T15:47:06.573Z,4.4
2023-11-19T15:52:06.530Z,4.4
2023-11-19T15:57:06.504Z,5.5
2023-11-19T16:02:06.611Z,5.8
2023-11-19T16:07:06.508Z,5.8
2023-11-19T16:12:06.545Z,6
2023-11-19T16:17:06.554Z,6
2023-11-19T16:22:06.549Z,6
2023-11-19T16:27:06.639Z,4.6
2023-11-19T16:32:06.602Z,4.6
2023-11-19T16:37:06.530Z,4.5
2023-11-19T16:42:06.527Z,4.5
2023-11-19T16:47:06.556Z,4.5
2023-11-19T16:52:06.538Z,4.5
2023-11-19T16:57:06.569Z,5.1
2023-11-19T17:02:06.578Z,5.4
2023-11-19T17:07:06.556Z,5.1
2023-11-19T17:12:06.565Z,5.1
2023-11-19T17:17:06.551Z,8
2023-11-19T17:22:06.551Z,8
2023-11-19T17:27:06.570Z,5.8
2023-11-19T17:32:06.583Z,5.8
2023-11-19T17:37:06.513Z,5.8
2023-11-19T17:42:06.570Z,5.8
2023-11-19T17:47:06.564Z,5.8
2023-11-19T17:52:06.558Z,5.8
2023-11-19T17:57:06.547Z,5.2
2023-11-19T18:02:06.574Z,5.2
2023-11-19T18:07:06.558Z,5.5
2023-11-19T18:12:15.012Z,5.2
2023-11-19T18:17:06.567Z,5.5
2023-11-19T18:22:06.601Z,6.7
2023-11-19T18:27:09.581Z,5.5
2023-11-19T18:32:06.676Z,6.7
2023-11-19T18:37:06.578Z,7.5
2023-11-19T18:42:06.602Z,6.9
2023-11-19T18:47:06.596Z,7.2
2023-11-19T18:52:06.576Z,6.9
2023-11-19T18:57:06.567Z,6.9
2023-11-19T19:02:06.645Z,7.2
2023-11-19T19:07:06.744Z,6.9
2023-11-19T19:12:06.533Z,6.9
2023-11-19T19:17:06.590Z,7.2
2023-11-19T19:22:06.572Z,6.7
2023-11-19T19:27:06.582Z,6.7
2023-11-19T19:32:06.598Z,7.3
2023-11-19T19:37:06.625Z,6.8
2023-11-19T19:42:06.613Z,7.3
2023-11-19T19:47:06.550Z,7.3
2023-11-19T19:52:06.552Z,6.8
2023-11-19T19:57:06.539Z,7.3
2023-11-19T20:02:06.613Z,7.6
2023-11-19T20:07:06.557Z,7.6
2023-11-19T20:12:06.626Z,7.9
2023-11-19T20:17:11.207Z,7.6
2023-11-19T20:22:06.557Z,6.2
2023-11-19T20:27:06.607Z,6.2
2023-11-19T20:32:06.565Z,6.2
2023-11-19T20:37:06.542Z,6.2
2023-11-19T20:42:06.560Z,8
2023-11-19T20:47:06.592Z,8
2023-11-19T20:52:06.581Z,9.1
2023-11-19T20:57:06.604Z,12.9
2023-11-19T21:02:06.587Z,12.9
2023-11-19T21:07:06.604Z,11.3
2023-11-19T21:12:06.587Z,11.3
2023-11-19T21:17:06.623Z,11.9
2023-11-19T21:22:06.589Z,11.3
2023-11-19T21:27:06.579Z,10.2
2023-11-19T21:32:06.573Z,8.7
2023-11-19T21:37:06.579Z,8.7
2023-11-19T21:42:06.609Z,9.3
2023-11-19T21:47:06.566Z,9.3
2023-11-19T21:52:06.531Z,8.7
2023-11-19T21:57:06.576Z,8.9
2023-11-19T22:02:06.587Z,8.7
2023-11-19T22:07:06.598Z,8.9
2023-11-19T22:12:06.613Z,8.4
2023-11-19T22:17:06.563Z,8.4
2023-11-19T22:22:06.589Z,8.4
2023-11-19T22:27:06.596Z,8.5
2023-11-19T22:32:06.590Z,8.4
2023-11-19T22:37:06.604Z,8.5
2023-11-19T22:42:06.571Z,8.5
2023-11-19T22:47:06.610Z,8.5
2023-11-19T22:52:06.579Z,8.5
2023-11-19T22:57:06.576Z,9
2023-11-19T23:02:06.601Z,11.7
2023-11-19T23:07:06.599Z,12.9
2023-11-19T23:12:06.573Z,12.9
2023-11-19T23:17:06.626Z,12.9
2023-11-19T23:22:06.570Z,13.8
2023-11-19T23:27:06.590Z,13.8
2023-11-19T23:32:06.623Z,13.8
2023-11-19T23:37:06.607Z,13.8
2023-11-19T23:42:06.613Z,13.6
2023-11-19T23:47:06.635Z,13.6
2023-11-19T23:52:06.598Z,13.8
2023-11-19T23:57:06.623Z,14
